createdAt,value
2022-10-11T00:02:03.994Z,77.80
2022-10-11T00:04:30.665Z,77.80
2022-10-11T00:06:57.317Z,77.80
2022-10-11T00:09:24.029Z,77.80
2022-10-11T00:11:50.682Z,77.90
2022-10-11T00:14:17.320Z,77.90
2022-10-11T00:16:44.539Z,77.80
2022-10-11T00:19:11.587Z,77.80
2022-10-11T00:21:38.713Z,77.80
2022-10-11T00:24:06.052Z,77.80
2022-10-11T00:26:32.938Z,77.80
2022-10-11T00:28:59.569Z,77.90
2022-10-11T00:31:26.270Z,77.90
2022-10-11T00:33:54.589Z,77.90
2022-10-11T00:36:21.940Z,77.80
2022-10-11T00:38:48.848Z,77.80
2022-10-11T00:41:16.492Z,77.80
2022-10-11T00:43:43.815Z,77.90
2022-10-11T00:46:19.217Z,78.00
2022-10-11T00:48:53.775Z,77.80
2022-10-11T00:51:28.686Z,77.80
2022-10-11T00:53:55.444Z,78.10
2022-10-11T00:56:31.178Z,78.00
2022-10-11T00:59:00.441Z,78.00
2022-10-11T01:01:27.392Z,78.00
2022-10-11T01:03:55.027Z,78.10
2022-10-11T01:06:21.655Z,78.00
2022-10-11T01:08:48.973Z,78.00
2022-10-11T01:11:19.455Z,78.00
2022-10-11T01:14:06.018Z,78.10
2022-10-11T01:16:56.952Z,78.10
2022-10-11T01:19:47.703Z,78.20
2022-10-11T01:22:29.325Z,78.20
2022-10-11T01:25:12.801Z,78.20
2022-10-11T01:28:06.331Z,78.20
2022-10-11T01:30:35.027Z,78.20
2022-10-11T01:33:07.793Z,79.10
2022-10-11T01:35:34.382Z,78.20
2022-10-11T01:38:07.887Z,78.20
2022-10-11T01:40:40.291Z,78.30
2022-10-11T01:43:07.035Z,78.20
2022-10-11T01:45:35.199Z,78.20
2022-10-11T01:48:07.398Z,78.30
2022-10-11T01:50:36.767Z,78.20
2022-10-11T01:53:14.996Z,78.20
2022-10-11T01:56:12.901Z,79.00
2022-10-11T01:58:55.706Z,78.20
2022-10-11T02:01:37.002Z,78.20
2022-10-11T02:04:24.798Z,78.10
2022-10-11T02:07:02.852Z,78.20
2022-10-11T02:09:46.897Z,78.10
2022-10-11T02:12:21.652Z,78.00
2022-10-11T02:14:51.578Z,78.10
2022-10-11T02:17:22.814Z,78.10
2022-10-11T02:19:53.020Z,78.10
2022-10-11T02:22:27.870Z,78.10
2022-10-11T02:24:58.889Z,78.10
2022-10-11T02:27:29.634Z,78.20
2022-10-11T02:29:58.419Z,78.10
2022-10-11T02:32:26.126Z,78.20
2022-10-11T02:34:56.447Z,78.30
2022-10-11T02:37:30.119Z,78.30
2022-10-11T02:40:07.329Z,78.20
2022-10-11T02:42:39.935Z,78.20
2022-10-11T02:45:20.936Z,78.20
2022-10-11T02:47:48.297Z,78.20
2022-10-11T02:50:15.370Z,78.30
2022-10-11T02:52:42.235Z,78.30
2022-10-11T02:55:09.742Z,78.30
2022-10-11T02:57:36.473Z,78.30
2022-10-11T03:00:04.583Z,78.20
2022-10-11T03:02:31.300Z,79.10
2022-10-11T03:04:57.961Z,78.30
2022-10-11T03:07:24.677Z,78.30
2022-10-11T03:09:51.319Z,78.30
2022-10-11T03:12:17.983Z,78.30
2022-10-11T03:14:44.638Z,78.30
2022-10-11T03:17:34.610Z,78.30
2022-10-11T03:19:58.063Z,78.30
2022-10-11T03:22:24.685Z,78.30
2022-10-11T03:24:51.350Z,78.40
2022-10-11T03:27:18.099Z,78.30
2022-10-11T03:29:44.787Z,78.40
2022-10-11T03:32:11.463Z,78.40
2022-10-11T03:34:38.140Z,78.40
2022-10-11T03:37:04.807Z,78.30
2022-10-11T03:39:31.549Z,78.40
2022-10-11T03:41:58.190Z,78.40
2022-10-11T03:44:24.917Z,79.30
2022-10-11T03:46:51.611Z,78.40
2022-10-11T03:49:18.256Z,78.50
2022-10-11T03:51:44.959Z,78.50
2022-10-11T03:54:11.620Z,78.50
2022-10-11T03:56:38.327Z,78.50
2022-10-11T03:59:05.005Z,78.60
2022-10-11T04:01:35.825Z,78.60
2022-10-11T04:04:02.585Z,78.50
2022-10-11T04:06:29.348Z,78.50
2022-10-11T04:08:56.026Z,78.50
2022-10-11T04:11:22.754Z,78.50
2022-10-11T04:13:49.427Z,78.60
2022-10-11T04:16:16.201Z,78.60
2022-10-11T04:18:42.974Z,78.60
2022-10-11T04:21:09.669Z,78.60
2022-10-11T04:23:36.341Z,78.60
2022-10-11T04:26:08.045Z,78.60
2022-10-11T04:28:35.258Z,78.60
2022-10-11T04:31:04.154Z,78.60
2022-10-11T04:33:31.081Z,78.70
2022-10-11T04:35:57.780Z,78.70
2022-10-11T04:38:24.550Z,78.80
2022-10-11T04:40:51.247Z,78.80
2022-10-11T04:43:18.919Z,78.70
2022-10-11T04:45:45.942Z,78.70
2022-10-11T04:48:13.966Z,78.70
2022-10-11T04:50:40.673Z,78.80
2022-10-11T04:53:07.430Z,78.70
2022-10-11T04:55:34.151Z,78.70
2022-10-11T04:58:02.117Z,78.70
2022-10-11T05:00:28.815Z,78.70
2022-10-11T05:02:55.517Z,78.80
2022-10-11T05:05:22.190Z,78.80
2022-10-11T05:07:48.929Z,78.70
2022-10-11T05:10:15.751Z,78.90
2022-10-11T05:12:42.420Z,78.90
2022-10-11T05:15:09.537Z,78.80
2022-10-11T05:17:36.539Z,78.80
2022-10-11T05:20:04.013Z,78.90
2022-10-11T05:22:30.679Z,79.00
2022-10-11T05:24:57.328Z,79.00
2022-10-11T05:27:23.997Z,78.90
2022-10-11T05:29:50.689Z,78.90
2022-10-11T05:32:17.335Z,78.90
2022-10-11T05:34:43.997Z,79.00
2022-10-11T05:37:10.766Z,79.00
2022-10-11T05:39:37.428Z,79.00
2022-10-11T05:42:08.916Z,79.10
2022-10-11T05:44:36.543Z,79.20
2022-10-11T05:47:03.683Z,79.10
2022-10-11T05:49:30.437Z,79.10
2022-10-11T05:51:57.117Z,79.20
2022-10-11T05:54:23.802Z,79.30
2022-10-11T05:56:50.439Z,79.20
2022-10-11T05:59:17.118Z,79.30
2022-10-11T06:01:43.892Z,79.40
2022-10-11T06:04:11.761Z,79.30
2022-10-11T06:06:38.403Z,79.40
2022-10-11T06:09:05.108Z,79.40
2022-10-11T06:11:31.957Z,79.60
2022-10-11T06:13:58.749Z,79.50
2022-10-11T06:16:26.061Z,79.50
2022-10-11T06:18:54.652Z,79.50
2022-10-11T06:21:21.824Z,79.60
2022-10-11T06:23:50.661Z,79.50
2022-10-11T06:26:18.042Z,79.60
2022-10-11T06:28:44.797Z,79.60
2022-10-11T06:31:12.323Z,79.60
2022-10-11T06:33:39.610Z,79.70
2022-10-11T06:36:16.873Z,79.80
2022-10-11T06:38:45.347Z,79.80
2022-10-11T06:41:16.514Z,79.80
2022-10-11T06:43:43.283Z,79.90
2022-10-11T06:46:10.697Z,80.00
2022-10-11T06:48:41.827Z,80.10
2022-10-11T06:51:08.610Z,81.00
2022-10-11T06:53:35.367Z,80.20
2022-10-11T06:56:04.622Z,80.20
2022-10-11T06:58:31.803Z,80.30
2022-10-11T07:01:08.893Z,80.40
2022-10-11T07:03:36.050Z,80.50
2022-10-11T07:06:24.211Z,80.60
2022-10-11T07:08:51.399Z,80.60
2022-10-11T07:11:24.131Z,80.70
2022-10-11T07:13:56.304Z,80.80
2022-10-11T07:16:23.940Z,80.80
2022-10-11T07:19:00.231Z,81.00
2022-10-11T07:21:28.681Z,81.00
2022-10-11T07:23:55.389Z,81.10
2022-10-11T07:26:22.187Z,81.20
2022-10-11T07:28:49.060Z,81.30
2022-10-11T07:31:19.719Z,81.40
2022-10-11T07:33:46.951Z,81.50
2022-10-11T07:36:14.122Z,81.60
2022-10-11T07:38:46.193Z,81.70
2022-10-11T07:41:13.156Z,81.70
2022-10-11T07:43:40.132Z,81.90
2022-10-11T07:46:07.355Z,82.20
2022-10-11T07:48:35.711Z,82.20
2022-10-11T07:51:13.094Z,82.20
2022-10-11T07:53:47.453Z,82.20
2022-10-11T07:56:16.697Z,82.40
2022-10-11T07:58:43.825Z,82.50
2022-10-11T08:01:11.568Z,82.50
2022-10-11T08:04:05.698Z,82.60
2022-10-11T08:06:32.754Z,82.90
2022-10-11T08:09:01.015Z,82.90
2022-10-11T08:11:30.928Z,82.90
2022-10-11T08:13:58.290Z,82.90
2022-10-11T08:16:25.338Z,83.00
2022-10-11T08:18:52.204Z,83.00
2022-10-11T08:21:19.230Z,83.00
2022-10-11T08:23:45.970Z,83.20
2022-10-11T08:26:12.836Z,83.30
2022-10-11T08:28:39.746Z,83.50
2022-10-11T08:31:06.894Z,83.70
2022-10-11T08:33:33.620Z,84.10
2022-10-11T08:36:06.158Z,84.20
2022-10-11T08:38:33.827Z,84.50
2022-10-11T08:41:01.521Z,84.70
2022-10-11T08:44:05.150Z,84.90
2022-10-11T08:46:33.724Z,85.20
2022-10-11T08:49:02.197Z,85.30
2022-10-11T08:51:33.626Z,85.40
2022-10-11T08:54:21.006Z,85.80
2022-10-11T08:56:48.519Z,85.70
2022-10-11T08:59:26.550Z,85.90
2022-10-11T09:02:03.341Z,86.00
2022-10-11T09:04:32.253Z,86.30
2022-10-11T09:07:05.181Z,86.50
2022-10-11T09:09:43.613Z,86.70
2022-10-11T09:12:41.197Z,87.10
2022-10-11T09:15:14.747Z,87.50
2022-10-11T09:17:44.481Z,86.80
2022-10-11T09:20:46.071Z,86.70
2022-10-11T09:23:15.610Z,86.60
2022-10-11T09:25:51.471Z,86.60
2022-10-11T09:28:47.368Z,86.40
2022-10-11T09:31:14.083Z,86.30
2022-10-11T09:33:46.884Z,86.30
2022-10-11T09:36:43.022Z,86.10
2022-10-11T09:39:27.816Z,86.10
2022-10-11T09:42:03.834Z,86.10
2022-10-11T09:44:35.129Z,86.00
2022-10-11T09:47:01.865Z,85.80
2022-10-11T09:49:35.576Z,85.30
2022-10-11T09:52:03.932Z,84.90
2022-10-11T09:54:42.266Z,84.30
2022-10-11T09:57:37.270Z,84.00
2022-10-11T10:00:06.262Z,83.30
2022-10-11T10:02:44.774Z,82.40
2022-10-11T10:05:11.404Z,81.60
2022-10-11T10:07:40.925Z,80.80
2022-10-11T10:10:32.271Z,80.70
2022-10-11T10:13:01.848Z,79.20
2022-10-11T10:15:36.885Z,79.30
2022-10-11T10:18:06.616Z,79.20
2022-10-11T10:20:35.457Z,78.40
2022-10-11T10:23:09.763Z,77.90
2022-10-11T10:25:43.227Z,77.40
2022-10-11T10:28:36.834Z,77.30
2022-10-11T10:31:03.615Z,76.20
2022-10-11T10:33:34.336Z,76.30
2022-10-11T10:36:07.768Z,75.80
2022-10-11T10:38:51.883Z,74.90
2022-10-11T10:41:19.474Z,74.60
2022-10-11T10:43:54.414Z,74.80
2022-10-11T10:47:01.230Z,74.90
2022-10-11T10:49:53.998Z,74.70
2022-10-11T10:52:39.901Z,74.10
2022-10-11T10:55:12.332Z,73.70
2022-10-11T10:58:16.321Z,72.70
2022-10-11T11:00:52.033Z,71.80
2022-10-11T11:03:37.759Z,72.10
2022-10-11T11:06:07.893Z,71.40
2022-10-11T11:08:34.692Z,71.10
2022-10-11T11:11:27.984Z,70.10
2022-10-11T11:14:00.270Z,70.80
2022-10-11T11:16:42.551Z,70.90
2022-10-11T11:19:25.755Z,71.10
2022-10-11T11:22:11.066Z,70.60
2022-10-11T11:24:59.758Z,69.40
2022-10-11T11:27:54.924Z,68.80
2022-10-11T11:30:27.467Z,69.10
2022-10-11T11:33:14.906Z,69.50
2022-10-11T11:35:45.114Z,69.40
2022-10-11T11:38:20.225Z,69.00
2022-10-11T11:40:54.895Z,68.80
2022-10-11T11:43:27.242Z,68.40
2022-10-11T11:46:09.551Z,67.30
2022-10-11T11:48:37.265Z,66.80
2022-10-11T11:51:12.975Z,67.00
2022-10-11T11:53:59.166Z,66.60
2022-10-11T11:56:41.968Z,65.80
2022-10-11T11:59:23.474Z,66.00
2022-10-11T12:02:35.132Z,64.90
2022-10-11T12:05:02.243Z,64.70
2022-10-11T12:07:30.087Z,64.50
2022-10-11T12:10:26.310Z,64.10
2022-10-11T12:13:31.941Z,63.00
2022-10-11T12:16:12.957Z,62.60
2022-10-11T12:18:51.661Z,63.30
2022-10-11T12:21:39.038Z,63.40
2022-10-11T12:24:24.774Z,63.00
2022-10-11T12:26:59.636Z,62.00
2022-10-11T12:29:43.705Z,62.50
2022-10-11T12:32:12.604Z,62.60
2022-10-11T12:34:42.245Z,61.30
2022-10-11T12:37:17.857Z,61.40
2022-10-11T12:39:52.777Z,61.00
2022-10-11T12:42:24.163Z,61.30
2022-10-11T12:45:16.864Z,61.00
2022-10-11T12:48:21.579Z,60.10
2022-10-11T12:51:03.245Z,60.30
2022-10-11T12:54:25.954Z,59.90
2022-10-11T12:57:25.497Z,59.80
2022-10-11T12:59:52.459Z,60.60
2022-10-11T13:02:30.733Z,61.00
2022-10-11T13:05:15.906Z,60.90
2022-10-11T13:07:43.298Z,61.20
2022-10-11T13:10:16.231Z,61.10
2022-10-11T13:12:46.144Z,61.00
2022-10-11T13:15:16.831Z,60.70
2022-10-11T13:17:43.671Z,60.80
2022-10-11T13:20:23.793Z,60.60
2022-10-11T13:22:53.739Z,59.30
2022-10-11T13:25:29.275Z,59.80
2022-10-11T13:27:59.435Z,60.10
2022-10-11T13:30:30.370Z,60.30
2022-10-11T13:32:58.766Z,60.40
2022-10-11T13:35:37.249Z,60.30
2022-10-11T13:38:07.934Z,59.40
2022-10-11T13:40:35.831Z,59.50
2022-10-11T13:43:05.606Z,59.10
2022-10-11T13:45:35.823Z,59.40
2022-10-11T13:48:02.846Z,59.70
2022-10-11T13:50:35.300Z,59.90
2022-10-11T13:53:22.231Z,59.70
2022-10-11T13:56:02.234Z,59.50
2022-10-11T13:58:40.238Z,59.40
2022-10-11T14:01:27.741Z,59.50
2022-10-11T14:04:01.250Z,59.80
2022-10-11T14:06:58.182Z,60.00
2022-10-11T14:09:36.579Z,59.90
2022-10-11T14:12:28.550Z,60.50
2022-10-11T14:14:55.297Z,61.10
2022-10-11T14:17:33.856Z,61.70
2022-10-11T14:20:15.578Z,61.90
2022-10-11T14:22:42.626Z,61.60
2022-10-11T14:25:09.551Z,61.10
2022-10-11T14:27:37.419Z,60.80
2022-10-11T14:30:31.854Z,59.80
2022-10-11T14:33:01.745Z,59.20
2022-10-11T14:35:31.904Z,58.30
2022-10-11T14:37:58.872Z,58.40
2022-10-11T14:40:28.740Z,56.70
2022-10-11T14:42:55.914Z,56.90
2022-10-11T14:45:23.136Z,56.30
2022-10-11T14:47:50.397Z,55.10
2022-10-11T14:50:31.476Z,54.50
2022-10-11T14:52:58.401Z,52.40
2022-10-11T14:55:25.205Z,53.00
2022-10-11T14:57:51.917Z,52.50
2022-10-11T15:00:22.463Z,52.90
2022-10-11T15:02:50.971Z,51.70
2022-10-11T15:05:17.637Z,51.60
2022-10-11T15:07:44.488Z,52.30
2022-10-11T15:10:23.213Z,52.50
2022-10-11T15:12:51.378Z,52.50
2022-10-11T15:15:21.001Z,52.50
2022-10-11T15:17:50.004Z,52.80
2022-10-11T15:20:28.811Z,53.00
2022-10-11T15:22:56.561Z,52.70
2022-10-11T15:25:24.100Z,53.20
2022-10-11T15:27:52.156Z,53.40
2022-10-11T15:30:26.033Z,53.70
2022-10-11T15:32:53.463Z,54.30
2022-10-11T15:35:21.600Z,54.80
2022-10-11T15:37:48.582Z,55.30
2022-10-11T15:40:17.533Z,56.00
2022-10-11T15:42:44.296Z,56.60
2022-10-11T15:45:12.160Z,57.10
2022-10-11T15:47:39.091Z,57.40
2022-10-11T15:50:38.806Z,58.20
2022-10-11T15:53:11.951Z,58.60
2022-10-11T15:55:41.781Z,59.20
2022-10-11T15:58:16.362Z,59.70
2022-10-11T16:00:44.421Z,60.20
2022-10-11T16:03:13.014Z,60.30
2022-10-11T16:05:40.582Z,61.70
2022-10-11T16:08:08.026Z,61.10
2022-10-11T16:10:35.374Z,61.50
2022-10-11T16:13:02.544Z,61.80
2022-10-11T16:15:29.444Z,62.10
2022-10-11T16:17:56.238Z,63.20
2022-10-11T16:20:24.721Z,62.60
2022-10-11T16:22:54.004Z,62.80
2022-10-11T16:25:21.467Z,63.10
2022-10-11T16:27:48.280Z,63.40
2022-10-11T16:30:16.579Z,63.60
2022-10-11T16:32:44.400Z,63.80
2022-10-11T16:35:12.622Z,64.00
2022-10-11T16:37:39.511Z,64.30
2022-10-11T16:40:08.158Z,64.50
2022-10-11T16:42:35.447Z,64.70
2022-10-11T16:45:02.134Z,64.80
2022-10-11T16:47:28.921Z,65.10
2022-10-11T16:49:55.829Z,65.40
2022-10-11T16:52:22.663Z,65.50
2022-10-11T16:54:49.442Z,65.70
2022-10-11T16:57:18.215Z,65.90
2022-10-11T16:59:44.958Z,66.00
2022-10-11T17:02:26.598Z,66.20
2022-10-11T17:04:55.429Z,66.30
2022-10-11T17:07:23.193Z,66.50
2022-10-11T17:09:50.477Z,66.70
2022-10-11T17:12:20.721Z,66.70
2022-10-11T17:14:47.721Z,67.00
2022-10-11T17:17:14.659Z,67.20
2022-10-11T17:19:45.106Z,67.30
2022-10-11T17:22:16.317Z,67.40
2022-10-11T17:24:43.152Z,67.60
2022-10-11T17:27:10.029Z,67.70
2022-10-11T17:29:37.425Z,67.90
2022-10-11T17:32:04.786Z,68.10
2022-10-11T17:34:31.805Z,68.30
2022-10-11T17:36:58.620Z,68.40
2022-10-11T17:39:25.848Z,68.50
2022-10-11T17:41:52.901Z,68.70
2022-10-11T17:44:20.023Z,68.80
2022-10-11T17:46:47.237Z,68.90
2022-10-11T17:49:14.501Z,69.90
2022-10-11T17:51:41.777Z,69.20
2022-10-11T17:54:12.843Z,69.40
2022-10-11T17:56:41.647Z,69.50
2022-10-11T17:59:15.722Z,69.70
2022-10-11T18:01:42.619Z,69.80
2022-10-11T18:04:16.376Z,69.90
2022-10-11T18:06:45.188Z,69.90
2022-10-11T18:09:14.287Z,69.90
2022-10-11T18:11:41.006Z,70.10
2022-10-11T18:14:07.784Z,70.20
2022-10-11T18:16:36.084Z,70.20
2022-10-11T18:19:05.192Z,70.30
2022-10-11T18:21:34.626Z,70.50
2022-10-11T18:24:03.029Z,70.70
2022-10-11T18:26:30.994Z,71.70
2022-10-11T18:28:58.889Z,70.90
2022-10-11T18:31:28.109Z,71.10
2022-10-11T18:33:55.215Z,71.10
2022-10-11T18:36:24.594Z,71.00
2022-10-11T18:39:05.536Z,71.10
2022-10-11T18:41:33.391Z,71.20
2022-10-11T18:44:03.475Z,71.20
2022-10-11T18:46:30.651Z,71.40
2022-10-11T18:49:01.197Z,71.30
2022-10-11T18:51:34.189Z,71.30
2022-10-11T18:54:01.730Z,71.30
2022-10-11T18:56:30.248Z,71.50
2022-10-11T18:58:59.173Z,71.60
2022-10-11T19:01:31.271Z,71.60
2022-10-11T19:03:59.976Z,71.50
2022-10-11T19:06:33.214Z,71.60
2022-10-11T19:09:11.993Z,71.50
2022-10-11T19:11:39.285Z,71.40
2022-10-11T19:14:09.862Z,71.50
2022-10-11T19:16:39.499Z,71.80
2022-10-11T19:19:07.316Z,71.80
2022-10-11T19:21:34.177Z,71.80
2022-10-11T19:24:00.923Z,71.80
2022-10-11T19:26:46.447Z,71.80
2022-10-11T19:29:21.163Z,71.80
2022-10-11T19:31:50.937Z,71.80
2022-10-11T19:34:18.163Z,71.90
2022-10-11T19:36:45.225Z,71.90
2022-10-11T19:39:15.666Z,72.00
2022-10-11T19:41:42.749Z,72.00
2022-10-11T19:44:10.321Z,72.30
2022-10-11T19:46:50.891Z,72.20
2022-10-11T19:49:21.518Z,72.10
2022-10-11T19:51:48.297Z,72.30
2022-10-11T19:54:15.153Z,72.30
2022-10-11T19:56:42.609Z,72.20
2022-10-11T19:59:11.039Z,72.30
2022-10-11T20:01:37.870Z,72.50
2022-10-11T20:04:07.314Z,72.50
2022-10-11T20:06:38.572Z,72.60
2022-10-11T20:09:29.530Z,72.50
2022-10-11T20:11:56.161Z,72.50
2022-10-11T20:14:22.913Z,72.50
2022-10-11T20:16:50.542Z,72.50
2022-10-11T20:19:17.652Z,72.60
2022-10-11T20:21:45.118Z,72.70
2022-10-11T20:24:12.471Z,72.60
2022-10-11T20:26:39.470Z,72.60
2022-10-11T20:29:06.863Z,72.60
2022-10-11T20:31:37.937Z,72.80
2022-10-11T20:34:07.122Z,72.80
2022-10-11T20:36:35.788Z,72.70
2022-10-11T20:39:02.568Z,72.70
2022-10-11T20:41:36.905Z,72.70
2022-10-11T20:44:04.621Z,72.70
2022-10-11T20:46:38.494Z,72.70
2022-10-11T20:49:07.762Z,72.60
2022-10-11T20:51:37.246Z,72.60
2022-10-11T20:54:04.857Z,73.50
2022-10-11T20:56:32.205Z,72.70
2022-10-11T20:58:59.616Z,72.80
2022-10-11T21:01:30.005Z,72.90
2022-10-11T21:03:57.562Z,72.90
2022-10-11T21:06:24.721Z,73.00
2022-10-11T21:08:51.384Z,73.00
2022-10-11T21:11:18.047Z,73.00
2022-10-11T21:13:44.826Z,73.00
2022-10-11T21:16:14.656Z,73.00
2022-10-11T21:18:41.637Z,73.00
2022-10-11T21:21:14.725Z,73.10
2022-10-11T21:23:41.961Z,73.10
2022-10-11T21:26:11.334Z,73.20
2022-10-11T21:28:38.791Z,73.20
2022-10-11T21:31:06.499Z,73.10
2022-10-11T21:33:34.447Z,73.00
2022-10-11T21:36:09.506Z,73.10
2022-10-11T21:38:36.787Z,73.10
2022-10-11T21:41:05.021Z,73.10
2022-10-11T21:43:31.973Z,73.20
2022-10-11T21:45:58.648Z,73.20
2022-10-11T21:48:25.353Z,73.20
2022-10-11T21:50:53.602Z,73.40
2022-10-11T21:53:20.854Z,73.40
2022-10-11T21:55:47.530Z,73.40
2022-10-11T21:58:14.271Z,73.60
2022-10-11T22:00:41.008Z,73.60
2022-10-11T22:03:07.749Z,73.50
2022-10-11T22:05:34.468Z,73.60
2022-10-11T22:08:01.134Z,73.50
2022-10-11T22:10:27.914Z,73.60
2022-10-11T22:12:54.585Z,73.60
2022-10-11T22:15:21.247Z,73.60
2022-10-11T22:17:47.888Z,73.60
2022-10-11T22:20:14.706Z,73.70
2022-10-11T22:22:41.350Z,73.70
2022-10-11T22:25:08.575Z,73.70
2022-10-11T22:27:35.244Z,73.70
2022-10-11T22:30:01.967Z,73.70
2022-10-11T22:32:28.631Z,73.70
2022-10-11T22:34:55.336Z,73.80
2022-10-11T22:37:22.065Z,73.80
2022-10-11T22:39:48.757Z,73.70
2022-10-11T22:42:15.436Z,73.70
2022-10-11T22:44:43.163Z,73.70
2022-10-11T22:47:09.869Z,73.70
2022-10-11T22:49:36.552Z,73.70
2022-10-11T22:52:03.347Z,73.70
2022-10-11T22:54:30.028Z,73.90
2022-10-11T22:56:56.691Z,73.90
2022-10-11T22:59:23.419Z,74.00
2022-10-11T23:01:50.061Z,74.00
2022-10-11T23:04:20.867Z,74.00
2022-10-11T23:06:47.531Z,74.10
2022-10-11T23:09:14.501Z,74.10
2022-10-11T23:11:41.196Z,74.10
2022-10-11T23:14:07.953Z,74.10
2022-10-11T23:16:34.653Z,74.20
2022-10-11T23:19:01.361Z,74.20
2022-10-11T23:21:28.006Z,74.30
2022-10-11T23:23:55.333Z,74.30
2022-10-11T23:26:22.158Z,74.40
2022-10-11T23:28:53.201Z,74.40
2022-10-11T23:31:19.934Z,74.40
2022-10-11T23:33:47.509Z,74.50
2022-10-11T23:36:20.685Z,74.40
2022-10-11T23:38:58.125Z,74.50
2022-10-11T23:41:27.580Z,74.50
2022-10-11T23:43:54.331Z,74.60
2022-10-11T23:46:21.083Z,74.50
2022-10-11T23:48:48.123Z,74.50
2022-10-11T23:51:14.825Z,74.60
2022-10-11T23:53:41.497Z,74.50
2022-10-11T23:56:10.122Z,74.60
2022-10-11T23:58:36.765Z,74.60
